Time;durP1;ratioP1;P1;durP2;ratioP2;P2;SDS_P1;SDS_P2;PMS_P1;PMS_P2;Temp;Humidity;BMP_temperature;BMP_pressure;BME280_temperature;BME280_humidity;BME280_pressure;Samples;Min_cycle;Max_cycle;Signal;HPM_P1;HPM_P2
2021/03/28 00:02:21;;;;;;;0.57;0.57;;;;;;;6.83;100.00;99887.97;5006224;28;20065;-80
2021/03/28 00:05:29;;;;;;;3.67;1.08;;;;;;;6.82;100.00;99889.19;5009244;28;20057;-81
2021/03/28 00:08:34;;;;;;;1.17;0.93;;;;;;;6.83;100.00;99879.66;5010537;28;20414;-81
2021/03/28 00:12:11;;;;;;;2.35;1.13;;;;;;;6.83;100.00;99869.38;5009874;28;20513;-82
2021/03/28 00:15:20;;;;;;;3.03;0.77;;;;;;;6.87;100.00;99875.56;5010098;28;20061;-81
2021/03/28 00:18:30;;;;;;;0.80;0.77;;;;;;;6.86;100.00;99873.25;5009813;28;20052;-81
2021/03/28 00:21:53;;;;;;;0.77;0.77;;;;;;;6.89;100.00;99877.84;5011046;28;20065;-81
2021/03/28 00:25:05;;;;;;;2.83;0.55;;;;;;;6.89;100.00;99883.41;5011342;28;20065;-82
2021/03/28 00:28:31;;;;;;;1.20;0.73;;;;;;;6.93;100.00;99861.88;5005264;28;20056;-80
2021/03/28 00:31:53;;;;;;;0.88;0.52;;;;;;;6.94;100.00;99860.69;4975558;28;20054;-80
2021/03/28 00:35:09;;;;;;;0.40;0.40;;;;;;;6.95;100.00;99853.94;5010463;28;20064;-81
2021/03/28 00:38:19;;;;;;;1.45;0.90;;;;;;;6.95;100.00;99851.16;5010418;28;20073;-83
2021/03/28 00:42:01;;;;;;;1.33;0.75;;;;;;;6.98;100.00;99844.72;5009530;28;20056;-82
2021/03/28 00:45:32;;;;;;;1.02;0.77;;;;;;;6.97;100.00;99823.81;5010145;28;20060;-82
2021/03/28 00:48:51;;;;;;;0.70;0.50;;;;;;;6.99;100.00;99826.09;5009960;28;20528;-82
2021/03/28 00:51:58;;;;;;;0.93;0.93;;;;;;;6.99;100.00;99810.28;5011515;28;20077;-81
2021/03/28 00:55:12;;;;;;;3.30;1.45;;;;;;;6.99;100.00;99810.28;5013029;28;20120;-81
2021/03/28 00:58:19;;;;;;;0.40;0.40;;;;;;;7.02;100.00;99798.28;5042651;28;20115;-81
2021/03/28 01:02:06;;;;;;;6.70;0.50;;;;;;;7.03;100.00;99804.59;5032561;28;20065;-81
2021/03/28 01:05:21;;;;;;;0.88;0.43;;;;;;;7.06;100.00;99793.38;5032331;28;20057;-80
2021/03/28 01:09:01;;;;;;;2.50;0.73;;;;;;;7.07;100.00;99780.31;5032655;28;20116;-80
2021/03/28 01:12:23;;;;;;;5.68;0.82;;;;;;;7.08;100.00;99785.38;5033058;28;20064;-81
2021/03/28 01:16:01;;;;;;;1.48;0.93;;;;;;;7.07;100.00;99781.09;5031587;28;20056;-81
2021/03/28 01:19:08;;;;;;;0.60;0.60;;;;;;;7.06;100.00;99764.94;5030738;28;20065;-81
2021/03/28 01:22:20;;;;;;;0.40;0.40;;;;;;;7.00;100.00;99756.44;5027169;28;20057;-81
2021/03/28 01:25:38;;;;;;;1.23;0.50;;;;;;;6.98;100.00;99758.88;5029928;28;20421;-81
2021/03/28 01:28:48;;;;;;;4.03;1.50;;;;;;;7.02;100.00;99753.22;5030394;28;20061;-80
2021/03/28 01:31:56;;;;;;;4.40;1.58;;;;;;;7.07;100.00;99742.31;5030358;28;20061;-79
2021/03/28 01:35:12;;;;;;;10.32;0.57;;;;;;;7.09;100.00;99748.19;5030135;28;20064;-79
2021/03/28 01:38:41;;;;;;;3.50;0.85;;;;;;;7.16;100.00;99750.69;5029987;28;20421;-80
2021/03/28 01:41:55;;;;;;;1.30;0.80;;;;;;;7.21;100.00;99747.31;5021839;28;20060;-79
2021/03/28 01:45:28;;;;;;;5.28;0.75;;;;;;;7.24;100.00;99746.41;5021706;28;20056;-80
2021/03/28 01:48:49;;;;;;;0.68;0.68;;;;;;;7.28;100.00;99737.94;5026637;28;20556;-80
2021/03/28 01:51:59;;;;;;;6.93;1.40;;;;;;;7.28;100.00;99724.88;5029474;28;20072;-80
2021/03/28 01:55:17;;;;;;;2.42;0.60;;;;;;;7.32;100.00;99733.81;5000781;28;20060;-81
2021/03/28 01:58:55;;;;;;;3.53;1.02;;;;;;;7.33;100.00;99743.66;4997917;28;20061;-81
2021/03/28 02:02:26;;;;;;;2.40;0.75;;;;;;;7.31;100.00;99748.91;4996984;28;20064;-80
2021/03/28 02:05:33;;;;;;;0.85;0.35;;;;;;;7.28;100.00;99749.81;4997134;28;20061;-81
2021/03/28 02:08:46;;;;;;;0.20;0.20;;;;;;;7.25;100.00;99744.41;5001693;28;20068;-80
2021/03/28 02:12:26;;;;;;;3.88;0.75;;;;;;;7.19;100.00;99735.91;5000871;28;20080;-80
2021/03/28 02:15:34;;;;;;;1.52;0.32;;;;;;;7.10;100.00;99730.34;4994010;28;20065;-81
2021/03/28 02:18:44;;;;;;;2.20;0.60;;;;;;;7.04;100.00;99721.06;4977559;28;20053;-81
2021/03/28 02:21:59;;;;;;;0.20;0.20;;;;;;;7.00;100.00;99714.91;4977503;28;20052;-82
2021/03/28 02:25:10;;;;;;;1.08;0.82;;;;;;;6.97;100.00;99724.13;4978957;28;20664;-81
2021/03/28 02:28:14;;;;;;;0.40;0.40;;;;;;;6.93;100.00;99715.19;4978275;28;20061;-81
2021/03/28 02:31:32;;;;;;;0.70;0.43;;;;;;;6.91;100.00;99717.63;4987632;28;20068;-80
2021/03/28 02:34:43;;;;;;;0.70;0.70;;;;;;;6.88;100.00;99715.78;5011027;28;20061;-84
2021/03/28 02:37:56;;;;;;;0.35;0.35;;;;;;;6.84;100.00;99709.63;5011171;28;20076;-80
2021/03/28 02:40:59;;;;;;;0.95;0.85;;;;;;;6.82;100.00;99718.34;5010580;28;20115;-78
2021/03/28 02:44:18;;;;;;;6.10;0.57;;;;;;;6.83;100.00;99713.59;5011120;28;20060;-78
2021/03/28 02:47:40;;;;;;;1.85;0.95;;;;;;;6.83;100.00;99714.38;5007682;28;20065;-77
2021/03/28 02:51:08;;;;;;;13.30;1.45;;;;;;;6.85;100.00;99711.16;5002129;28;20410;-78
2021/03/28 02:54:29;;;;;;;0.20;0.20;;;;;;;6.84;100.00;99709.63;5008244;28;20065;-77
2021/03/28 02:57:40;;;;;;;3.77;0.87;;;;;;;6.85;100.00;99711.16;5022429;28;20121;-77
2021/03/28 03:01:08;;;;;;;1.52;0.50;;;;;;;6.82;100.00;99706.53;5022775;28;20064;-77
2021/03/28 03:04:21;;;;;;;4.03;0.60;;;;;;;6.80;100.00;99714.50;5030614;28;20069;-78
2021/03/28 03:07:58;;;;;;;0.75;0.75;;;;;;;6.81;100.00;99710.50;5028980;28;20520;-77
2021/03/28 03:11:27;;;;;;;0.80;0.80;;;;;;;6.83;100.00;99702.53;5024934;28;20064;-78
2021/03/28 03:14:52;;;;;;;1.25;0.68;;;;;;;6.85;100.00;99711.16;5010617;28;20060;-78
2021/03/28 03:18:33;;;;;;;0.55;0.47;;;;;;;6.89;100.00;99723.63;5024085;28;20076;-78
2021/03/28 03:22:28;;;;;;;0.20;0.20;;;;;;;6.90;100.00;99724.41;5028962;28;20056;-78
2021/03/28 03:25:47;;;;;;;0.35;0.35;;;;;;;6.91;100.00;99717.63;5027453;28;20072;-77
2021/03/28 03:29:24;;;;;;;0.30;0.30;;;;;;;6.91;100.00;99720.41;5023080;28;20060;-77
2021/03/28 03:33:04;;;;;;;0.20;0.20;;;;;;;6.92;100.00;99713.66;5026222;28;20525;-77
2021/03/28 03:36:20;;;;;;;0.30;0.30;;;;;;;6.88;100.00;99711.03;5022712;28;20572;-77
2021/03/28 03:39:48;;;;;;;1.42;0.80;;;;;;;6.88;100.00;99696.41;5012164;28;20410;-77
2021/03/28 03:43:11;;;;;;;10.32;0.85;;;;;;;6.86;100.00;99707.91;5023015;28;20542;-77
2021/03/28 03:46:33;;;;;;;0.30;0.30;;;;;;;6.88;100.00;99704.72;5030324;28;20064;-76
2021/03/28 03:49:46;;;;;;;2.67;0.82;;;;;;;6.86;100.00;99698.88;5027008;28;20064;-77
2021/03/28 03:53:02;;;;;;;1.60;0.77;;;;;;;6.88;100.00;99701.94;5022654;28;20060;-77
2021/03/28 03:56:17;;;;;;;7.57;0.73;;;;;;;6.85;100.00;99705.59;5009573;28;20402;-78
2021/03/28 03:59:44;;;;;;;0.70;0.70;;;;;;;6.84;100.00;99699.28;5029064;28;20076;-77
2021/03/28 04:03:16;;;;;;;0.28;0.22;;;;;;;6.85;100.00;99700.06;5029049;28;20520;-77
2021/03/28 04:06:42;;;;;;;0.40;0.40;;;;;;;6.83;100.00;99697.00;5022961;28;20115;-77
2021/03/28 04:09:50;;;;;;;0.95;0.80;;;;;;;6.84;100.00;99695.78;5022049;28;20060;-76
2021/03/28 04:13:01;;;;;;;0.28;0.28;;;;;;;6.84;100.00;99701.31;5029699;28;20060;-76
2021/03/28 04:16:08;;;;;;;0.57;0.40;;;;;;;6.85;100.00;99689.00;5024701;28;20065;-77
2021/03/28 04:19:33;;;;;;;0.90;0.80;;;;;;;6.86;100.00;99696.09;5024995;28;20410;-76
2021/03/28 04:23:08;;;;;;;1.95;0.70;;;;;;;6.88;100.00;99685.34;5028374;28;20085;-77
2021/03/28 04:26:18;;;;;;;3.03;0.40;;;;;;;6.91;100.00;99681.66;5029065;28;20080;-77
2021/03/28 04:29:23;;;;;;;0.85;0.85;;;;;;;6.92;100.00;99683.19;5033013;28;20057;-78
2021/03/28 04:32:35;;;;;;;1.27;0.63;;;;;;;6.94;100.00;99675.22;5033529;28;20061;-77
2021/03/28 04:36:03;;;;;;;0.55;0.55;;;;;;;6.94;100.00;99671.66;5033377;28;20076;-77
2021/03/28 04:39:29;;;;;;;0.38;0.38;;;;;;;6.90;100.00;99680.13;5028685;28;20068;-78
2021/03/28 04:42:51;;;;;;;0.43;0.43;;;;;;;6.91;100.00;99686.44;5032193;28;20534;-78
2021/03/28 04:46:31;;;;;;;0.38;0.38;;;;;;;6.92;100.00;99674.91;5026109;28;20064;-78
2021/03/28 04:49:40;;;;;;;0.30;0.30;;;;;;;6.91;100.00;99665.03;5030692;28;20056;-78
2021/03/28 04:53:17;;;;;;;0.38;0.38;;;;;;;6.96;100.00;99663.66;5024341;28;20083;-77
2021/03/28 04:56:35;;;;;;;0.20;0.20;;;;;;;6.98;100.00;99675.84;5032275;28;20057;-77
2021/03/28 04:59:57;;;;;;;0.40;0.40;;;;;;;7.01;100.00;99674.94;5033037;28;20056;-78
2021/03/28 05:03:47;;;;;;;0.30;0.30;;;;;;;7.01;100.00;99663.88;5026212;28;20060;-78
2021/03/28 05:07:19;;;;;;;0.50;0.50;;;;;;;7.03;100.00;99666.16;5032217;28;20052;-77
2021/03/28 05:10:38;;;;;;;0.60;0.55;;;;;;;7.05;100.00;99664.50;5029498;28;20060;-80
2021/03/28 05:13:59;;;;;;;0.65;0.40;;;;;;;7.05;100.00;99658.94;5032667;28;20064;-79
2021/03/28 05:17:03;;;;;;;0.30;0.30;;;;;;;7.04;100.00;99653.88;5027549;28;20433;-78
2021/03/28 05:20:45;;;;;;;1.60;0.75;;;;;;;7.05;100.00;99658.94;5027547;28;20056;-79
2021/03/28 05:23:58;;;;;;;0.45;0.25;;;;;;;7.07;100.00;99662.03;5031869;28;20065;-79
2021/03/28 05:27:23;;;;;;;0.38;0.38;;;;;;;7.09;100.00;99667.88;5026783;28;20060;-79
2021/03/28 05:31:00;;;;;;;2.58;0.85;;;;;;;7.09;100.00;99661.56;5029791;28;20539;-79
2021/03/28 05:34:26;;;;;;;3.50;0.82;;;;;;;7.08;100.00;99663.56;5027189;28;20068;-80
2021/03/28 05:38:00;;;;;;;0.20;0.20;;;;;;;7.09;100.00;99659.56;5030796;28;20068;-79
2021/03/28 05:41:38;;;;;;;0.30;0.30;;;;;;;7.11;100.00;99673.72;5026895;28;20052;-80
2021/03/28 05:45:14;;;;;;;10.25;0.52;;;;;;;7.14;100.00;99664.53;5030377;28;20064;-81
2021/03/28 05:48:44;;;;;;;5.47;0.60;;;;;;;7.16;100.00;99664.84;5031388;28;20063;-79
2021/03/28 05:52:30;;;;;;;0.13;0.13;;;;;;;7.21;100.00;99672.53;5031717;28;20061;-79
2021/03/28 05:55:40;;;;;;;0.60;0.43;;;;;;;7.25;100.00;99667.63;5031327;28;20068;-81
2021/03/28 05:59:05;;;;;;;0.52;0.50;;;;;;;7.26;100.00;99666.41;5012057;28;20057;-81
2021/03/28 06:02:09;;;;;;;1.15;0.55;;;;;;;7.31;100.00;99670.56;5012639;28;20077;-81
2021/03/28 06:05:18;;;;;;;2.13;0.55;;;;;;;7.33;100.00;99668.88;5011911;28;20536;-79
2021/03/28 06:08:57;;;;;;;0.43;0.43;;;;;;;7.36;100.00;99667.94;5011210;28;20513;-80
2021/03/28 06:12:38;;;;;;;0.95;0.40;;;;;;;7.42;100.00;99654.28;5011749;28;20052;-80
2021/03/28 06:15:54;;;;;;;0.20;0.20;;;;;;;7.46;100.00;99666.75;5011866;28;20060;-80
2021/03/28 06:19:15;;;;;;;1.10;0.60;;;;;;;7.52;100.00;99662.16;5011656;28;20065;-79
2021/03/28 06:22:43;;;;;;;0.28;0.28;;;;;;;7.62;100.00;99666.47;5011080;28;20068;-79
2021/03/28 06:26:22;;;;;;;0.25;0.25;;;;;;;7.69;100.00;99672.97;5011259;28;20069;-79
2021/03/28 06:30:00;;;;;;;0.50;0.50;;;;;;;7.75;100.00;99682.19;5023482;28;20061;-79
2021/03/28 06:33:41;;;;;;;0.20;0.20;;;;;;;7.78;100.00;99684.03;5022708;28;20053;-79
2021/03/28 06:36:57;;;;;;;0.28;0.28;;;;;;;7.82;100.00;99681.91;5002687;28;20065;-81
2021/03/28 06:40:43;;;;;;;0.55;0.35;;;;;;;7.87;100.00;99695.13;5004958;28;20061;-80
2021/03/28 06:44:10;;;;;;;0.10;0.10;;;;;;;7.88;100.00;99697.47;5009601;28;20061;-80
2021/03/28 06:47:44;;;;;;;0.20;0.20;;;;;;;7.92;100.00;99706.41;4999331;28;20060;-80
2021/03/28 06:50:51;;;;;;;0.20;0.20;;;;;;;7.96;100.00;99697.91;5018701;28;20069;-80
2021/03/28 06:54:32;;;;;;;0.20;0.20;;;;;;;8.00;100.00;99698.53;5023240;28;20052;-81
2021/03/28 06:58:01;;;;;;;0.50;0.47;;;;;;;8.05;100.00;99717.34;5012193;28;20111;-81
2021/03/28 07:01:39;;;;;;;0.20;0.20;;;;;;;8.11;100.00;99709.94;5016105;28;20060;-81
2021/03/28 07:05:15;;;;;;;7.78;0.45;;;;;;;8.19;100.00;99716.72;5009763;28;20061;-80
2021/03/28 07:08:36;;;;;;;0.17;0.17;;;;;;;8.27;100.00;99723.53;4988605;28;20069;-80
2021/03/28 07:11:52;;;;;;;0.60;0.40;;;;;;;8.34;100.00;99726.75;4990359;28;20065;-80
2021/03/28 07:15:37;;;;;;;0.10;0.10;;;;;;;8.38;100.00;99724.59;5010161;28;20065;-81
2021/03/28 07:18:52;;;;;;;0.30;0.30;;;;;;;8.43;100.00;99736.31;5010243;28;20072;-80
2021/03/28 07:22:16;;;;;;;0.30;0.30;;;;;;;8.48;100.00;99733.69;5004213;28;20418;-79
2021/03/28 07:25:46;;;;;;;0.73;0.30;;;;;;;8.53;100.00;99735.84;5009305;28;20057;-80
2021/03/28 07:29:13;;;;;;;3.72;0.20;;;;;;;8.54;100.00;99745.69;5002876;28;20521;-80
2021/03/28 07:32:54;;;;;;;2.33;0.45;;;;;;;8.53;100.00;99752.50;5009761;28;20060;-80
2021/03/28 07:36:20;;;;;;;0.70;0.33;;;;;;;8.52;100.00;99744.63;5004198;28;20418;-80
2021/03/28 07:40:17;;;;;;;3.22;1.17;;;;;;;8.56;100.00;99746.00;5009132;28;20287;-80
2021/03/28 07:43:49;;;;;;;1.08;0.60;;;;;;;8.60;100.00;99756.97;4974448;28;20065;-79
2021/03/28 07:47:23;;;;;;;2.38;0.65;;;;;;;8.66;100.00;99753.09;5008711;28;20065;-80
2021/03/28 07:50:32;;;;;;;0.40;0.30;;;;;;;8.70;100.00;99759.28;5012888;28;20069;-82
2021/03/28 07:53:54;;;;;;;0.40;0.32;;;;;;;8.76;100.00;99760.19;5015006;28;20061;-81
2021/03/28 07:57:10;;;;;;;1.77;0.50;;;;;;;8.84;100.00;99758.63;5015252;28;20076;-82
2021/03/28 08:00:23;;;;;;;2.10;0.93;;;;;;;8.94;100.00;99760.13;5022417;28;20061;-82
2021/03/28 08:03:47;;;;;;;3.40;0.45;;;;;;;9.06;100.00;99761.97;5013129;28;20076;-81
2021/03/28 08:06:57;;;;;;;0.40;0.40;;;;;;;9.16;100.00;99762.69;5020821;28;20152;-82
2021/03/28 08:10:25;;;;;;;1.40;0.30;;;;;;;9.18;100.00;99760.97;5005544;28;20145;-82
2021/03/28 08:13:43;;;;;;;0.50;0.50;;;;;;;9.25;100.00;99773.03;5038655;28;20068;-82
2021/03/28 08:16:47;;;;;;;0.38;0.20;;;;;;;9.35;100.00;99766.97;5017385;28;20076;-81
2021/03/28 08:20:11;;;;;;;0.73;0.30;;;;;;;9.47;100.00;99756.84;5014889;28;20053;-82
2021/03/28 08:23:56;;;;;;;1.58;0.40;;;;;;;9.65;100.00;99759.56;5033275;28;20056;-82
2021/03/28 08:27:21;;;;;;;0.95;0.43;;;;;;;9.74;100.00;99759.50;5025428;28;20133;-82
2021/03/28 08:30:46;;;;;;;0.43;0.20;;;;;;;9.74;100.00;99770.63;5021373;28;20060;-82
2021/03/28 08:34:20;;;;;;;1.90;0.75;;;;;;;9.72;100.00;99773.13;5020649;28;20084;-82
2021/03/28 08:37:56;;;;;;;0.10;0.10;;;;;;;9.69;100.00;99774.06;5023493;28;20077;-82
2021/03/28 08:41:23;;;;;;;0.45;0.10;;;;;;;9.70;100.00;99775.59;5031914;28;20133;-82
2021/03/28 08:44:48;;;;;;;8.32;1.60;;;;;;;9.75;100.00;99783.28;5028998;28;20056;-81
2021/03/28 08:47:55;;;;;;;0.65;0.20;;;;;;;9.80;100.00;99779.88;5013080;28;20065;-82
2021/03/28 08:51:16;;;;;;;3.53;1.35;;;;;;;9.83;100.00;99779.69;5032243;28;20087;-82
2021/03/28 08:54:58;;;;;;;1.27;0.47;;;;;;;9.92;100.00;99787.19;5025835;28;20060;-83
2021/03/28 08:58:14;;;;;;;0.10;0.10;;;;;;;9.98;100.00;99776.22;5028420;28;20060;-83
2021/03/28 09:01:25;;;;;;;1.30;0.60;;;;;;;10.02;100.00;99785.16;5029524;28;20060;-83
2021/03/28 09:04:46;;;;;;;4.90;0.35;;;;;;;10.07;100.00;99793.59;5032805;28;20060;-82
2021/03/28 09:08:13;;;;;;;3.60;0.80;;;;;;;10.14;100.00;99789.72;5025237;28;20060;-82
2021/03/28 09:11:22;;;;;;;1.00;0.60;;;;;;;10.20;100.00;99799.72;5032391;28;20060;-83
2021/03/28 09:14:59;;;;;;;4.57;0.45;;;;;;;10.26;100.00;99799.84;5029215;28;20064;-83
2021/03/28 09:18:37;;;;;;;1.50;0.82;;;;;;;10.31;100.00;99802.75;5032619;28;20060;-82
2021/03/28 09:21:46;;;;;;;3.53;0.43;;;;;;;10.30;100.00;99806.78;5011174;28;20065;-82
2021/03/28 09:24:55;;;;;;;1.45;0.13;;;;;;;10.29;100.00;99810.81;5012722;28;20060;-82
2021/03/28 09:28:17;;;;;;;1.98;0.47;;;;;;;10.31;100.00;99813.13;5012077;28;20057;-83
2021/03/28 09:32:03;;;;;;;4.75;0.32;;;;;;;10.35;100.00;99808.91;5008464;28;20053;-83
2021/03/28 09:35:21;;;;;;;1.65;0.38;;;;;;;10.44;100.00;99810.84;5008844;28;20060;-82
2021/03/28 09:38:34;;;;;;;5.28;0.30;;;;;;;10.50;100.00;99809.72;4995876;28;20069;-82
2021/03/28 09:41:59;;;;;;;0.88;0.22;;;;;;;10.64;100.00;99805.44;4992587;28;20069;-83
2021/03/28 09:45:39;;;;;;;0.80;0.30;;;;;;;11.01;100.00;99814.22;5008047;28;20065;-82
2021/03/28 09:49:05;;;;;;;0.30;0.28;;;;;;;11.24;100.00;99821.75;5008438;28;20411;-80
2021/03/28 09:52:24;;;;;;;1.35;0.73;;;;;;;11.18;100.00;99818.06;5011926;28;20061;-82
2021/03/28 09:55:32;;;;;;;1.65;0.50;;;;;;;11.11;100.00;99822.00;5011242;28;20068;-82
2021/03/28 09:58:54;;;;;;;1.35;0.30;;;;;;;11.02;100.00;99826.91;5012037;28;20069;-83
2021/03/28 10:02:25;;;;;;;4.13;0.68;;;;;;;11.05;100.00;99828.72;5010998;28;20065;-81
2021/03/28 10:05:32;;;;;;;0.22;0.22;;;;;;;11.12;100.00;99836.72;5011014;28;20064;-82
2021/03/28 10:08:44;;;;;;;0.80;0.10;;;;;;;11.11;100.00;99835.94;5010312;28;20509;-83
2021/03/28 10:11:56;;;;;;;2.42;0.60;;;;;;;11.18;100.00;99823.66;5011545;28;20069;-82
2021/03/28 10:15:04;;;;;;;0.55;0.45;;;;;;;11.35;100.00;99830.28;5011428;28;20112;-82
2021/03/28 10:18:46;;;;;;;1.20;0.40;;;;;;;11.57;100.00;99838.22;5012221;28;20077;-80
2021/03/28 10:22:17;;;;;;;13.35;1.60;;;;;;;11.82;100.00;99832.84;4991166;28;20069;-81
2021/03/28 10:25:41;;;;;;;2.33;1.35;;;;;;;12.06;100.00;99835.50;5007514;28;20061;-80
2021/03/28 10:29:04;;;;;;;4.53;0.45;;;;;;;12.28;100.00;99826.66;5011035;28;20061;-80
2021/03/28 10:32:30;;;;;;;5.32;2.03;;;;;;;12.61;100.00;99824.25;4992108;28;20336;-82
2021/03/28 10:35:55;;;;;;;6.50;0.60;;;;;;;12.73;100.00;99842.69;4990717;28;20057;-81
2021/03/28 10:39:13;;;;;;;4.45;0.70;;;;;;;12.71;100.00;99845.22;5011088;28;20108;-79
2021/03/28 10:42:38;;;;;;;1.95;0.50;;;;;;;12.76;100.00;99847.28;5009683;28;20065;-80
2021/03/28 10:46:15;;;;;;;2.55;0.50;;;;;;;12.81;100.00;99846.59;5011283;28;20084;-81
2021/03/28 10:49:56;;;;;;;4.40;0.88;;;;;;;12.88;100.00;99843.38;5013823;28;20061;-80
2021/03/28 10:53:25;;;;;;;7.40;1.73;;;;;;;12.89;100.00;99858.88;5030661;28;20080;-80
2021/03/28 10:56:29;;;;;;;8.52;2.08;;;;;;;12.79;100.00;99866.66;5029785;28;20111;-80
2021/03/28 10:59:54;;;;;;;0.32;0.30;;;;;;;12.56;100.00;99869.66;5031342;28;20116;-80
2021/03/28 11:03:25;;;;;;;1.45;0.30;;;;;;;12.37;100.00;99876.75;5031148;28;20068;-80
2021/03/28 11:06:40;;;;;;;;;;;;;;;12.24;100.00;99865.16;5040643;28;20060;-80
2021/03/28 11:10:14;;;;;;;2.40;0.65;;;;;;;12.26;100.00;99876.63;5030567;28;19921;-81
2021/03/28 11:13:36;;;;;;;6.07;0.60;;;;;;;12.24;100.00;99868.72;5028302;28;20347;-79
2021/03/28 11:17:01;;;;;;;3.30;0.38;;;;;;;12.23;100.00;99877.59;5030461;28;20061;-79
2021/03/28 11:20:27;;;;;;;2.50;0.35;;;;;;;12.21;100.00;99885.69;5029110;28;20072;-80
2021/03/28 11:23:55;;;;;;;1.88;0.60;;;;;;;12.12;100.00;99881.78;5029559;28;20060;-79
2021/03/28 11:27:20;;;;;;;1.77;0.80;;;;;;;12.09;100.00;99899.47;5030011;28;20069;-79
2021/03/28 11:30:42;;;;;;;6.22;0.93;;;;;;;12.14;100.00;99887.63;5029852;28;20064;-79
2021/03/28 11:34:24;;;;;;;1.98;0.50;;;;;;;12.15;100.00;99891.94;5030667;28;20060;-80
2021/03/28 11:37:39;;;;;;;0.30;0.30;;;;;;;12.17;100.00;99892.22;5029143;28;20068;-81
2021/03/28 11:41:05;;;;;;;0.32;0.10;;;;;;;12.37;100.00;99893.50;5027701;28;20125;-78
2021/03/28 11:44:18;;;;;;;2.38;0.47;;;;;;;12.71;100.00;99892.72;5028015;28;20068;-80
2021/03/28 11:47:40;;;;;;;1.40;0.45;;;;;;;13.02;100.00;99873.25;5027988;28;20520;-82
2021/03/28 11:50:44;;;;;;;0.10;0.10;;;;;;;13.37;100.00;99885.09;5011944;28;20061;-81
2021/03/28 11:54:05;;;;;;;1.17;0.20;;;;;;;13.65;100.00;99883.31;5032897;28;20059;-79
2021/03/28 11:57:12;;;;;;;0.40;0.28;;;;;;;13.99;100.00;99872.38;5008415;28;20069;-79
2021/03/28 12:00:38;;;;;;;0.20;0.20;;;;;;;14.18;100.00;99870.72;5007933;28;20067;-80
2021/03/28 12:03:43;;;;;;;0.73;0.38;;;;;;;14.46;100.00;99866.06;5007810;28;20060;-81
2021/03/28 12:06:52;;;;;;;2.47;0.20;;;;;;;14.70;100.00;99858.03;5000497;28;20529;-81
2021/03/28 12:09:58;;;;;;;0.10;0.00;;;;;;;14.80;100.00;99862.16;5001471;28;20061;-81
2021/03/28 12:13:20;;;;;;;0.77;0.17;;;;;;;15.14;100.00;99863.75;5008032;28;20049;-80
2021/03/28 12:16:45;;;;;;;0.63;0.15;;;;;;;15.42;100.00;99860.25;5007718;28;20414;-80
2021/03/28 12:20:13;;;;;;;0.10;0.00;;;;;;;15.44;100.00;99860.53;5000776;28;20057;-79
2021/03/28 12:23:26;;;;;;;1.42;0.28;;;;;;;15.42;100.00;99861.00;5008587;28;20807;-80
2021/03/28 12:26:35;;;;;;;0.68;0.22;;;;;;;15.28;100.00;99872.47;5007355;28;20065;-80
2021/03/28 12:29:43;;;;;;;0.10;0.00;;;;;;;15.10;100.00;99874.47;5010413;28;20060;-80
2021/03/28 12:33:12;;;;;;;0.10;0.10;;;;;;;14.76;100.00;99861.63;5011852;28;20069;-81
2021/03/28 12:36:17;;;;;;;0.35;0.10;;;;;;;14.21;100.00;99878.13;5011200;28;20521;-80
2021/03/28 12:39:28;;;;;;;0.10;0.00;;;;;;;14.02;100.00;99874.94;5005632;28;20157;-80
2021/03/28 12:42:35;;;;;;;0.82;0.30;;;;;;;14.18;100.00;99876.31;5010204;28;20057;-82
2021/03/28 12:45:41;;;;;;;0.55;0.30;;;;;;;14.29;100.00;99887.63;5010283;28;20057;-81
2021/03/28 12:48:44;;;;;;;0.13;0.10;;;;;;;14.43;100.00;99883.88;5004221;28;20103;-81
2021/03/28 12:52:10;;;;;;;0.20;0.20;;;;;;;14.58;100.00;99889.31;5032103;28;20060;-81
2021/03/28 12:55:29;;;;;;;0.20;0.20;;;;;;;14.69;100.00;99895.72;5022911;28;20072;-81
2021/03/28 12:58:42;;;;;;;1.92;0.50;;;;;;;14.48;100.00;99883.16;5032952;28;20060;-80
2021/03/28 13:01:46;;;;;;;0.10;0.10;;;;;;;14.34;100.00;99898.09;5034234;28;20072;-82
2021/03/28 13:04:59;;;;;;;0.35;0.10;;;;;;;14.31;100.00;99896.31;5025645;28;20402;-80
2021/03/28 13:08:05;;;;;;;0.10;0.00;;;;;;;14.24;100.00;99888.31;5033706;28;20088;-82
2021/03/28 13:11:10;;;;;;;0.45;0.17;;;;;;;14.33;100.00;99891.75;5037776;28;20061;-82
2021/03/28 13:14:36;;;;;;;0.10;0.10;;;;;;;14.44;100.00;99885.44;5032872;28;20061;-80
2021/03/28 13:17:41;;;;;;;0.32;0.17;;;;;;;14.40;100.00;99901.72;5031410;28;20060;-79
2021/03/28 13:20:52;;;;;;;0.65;0.20;;;;;;;14.32;100.00;99900.63;5032030;28;20057;-78
2021/03/28 13:24:14;;;;;;;0.20;0.10;;;;;;;14.17;100.00;99900.00;5032218;28;20524;-78
2021/03/28 13:27:21;;;;;;;1.23;0.10;;;;;;;14.02;100.00;99899.38;5030893;28;20544;-78
2021/03/28 13:30:45;;;;;;;0.10;0.10;;;;;;;13.92;100.00;99900.84;5032521;28;20072;-79
2021/03/28 13:33:53;;;;;;;0.20;0.10;;;;;;;13.81;100.00;99889.53;5023487;28;20060;-79
2021/03/28 13:37:02;;;;;;;0.32;0.32;;;;;;;13.78;100.00;99890.53;5031721;28;20064;-79
2021/03/28 13:40:05;;;;;;;1.83;0.30;;;;;;;13.79;100.00;99897.69;5027428;28;20532;-77
2021/03/28 13:43:30;;;;;;;0.10;0.00;;;;;;;13.60;100.00;99886.81;5031176;28;20053;-78
2021/03/28 13:46:48;;;;;;;0.10;0.00;;;;;;;13.56;100.00;99886.28;5037364;28;20064;-78
2021/03/28 13:49:52;;;;;;;0.10;0.10;;;;;;;13.48;100.00;99885.19;5026190;28;20172;-78
2021/03/28 13:52:59;;;;;;;0.10;0.10;;;;;;;13.47;100.00;99872.47;5032740;28;20060;-78
2021/03/28 13:56:28;;;;;;;0.20;0.20;;;;;;;13.36;100.00;99866.75;5032943;28;20080;-78
2021/03/28 13:59:34;;;;;;;7.53;0.20;;;;;;;13.37;100.00;99865.50;5030847;28;20064;-80
2021/03/28 14:02:40;;;;;;;2.47;0.70;;;;;;;13.36;100.00;99861.16;5031723;28;20057;-80
2021/03/28 14:05:47;;;;;;;8.77;1.73;;;;;;;13.51;100.00;99856.22;5023109;28;20093;-79
2021/03/28 14:09:13;;;;;;;10.93;1.17;;;;;;;13.66;100.00;99851.25;5030425;28;20060;-82
2021/03/28 14:12:23;;;;;;;2.38;0.38;;;;;;;13.69;100.00;99855.09;5030464;28;20064;-82
2021/03/28 14:15:47;;;;;;;10.03;0.90;;;;;;;13.81;100.00;99851.13;5030961;28;20069;-80
2021/03/28 14:18:55;;;;;;;7.03;1.00;;;;;;;13.82;100.00;99849.09;5023389;28;20056;-80
2021/03/28 14:22:30;;;;;;;9.15;1.77;;;;;;;13.80;100.00;99854.41;5030802;28;20607;-79
2021/03/28 14:25:39;;;;;;;1.15;0.43;;;;;;;13.62;100.00;99844.38;5029110;28;20068;-79
2021/03/28 14:28:48;;;;;;;9.02;1.02;;;;;;;13.50;100.00;99853.91;5022577;28;20069;-79
2021/03/28 14:32:12;;;;;;;5.07;1.10;;;;;;;13.45;100.00;99847.00;5031307;28;20068;-79
2021/03/28 14:35:30;;;;;;;2.13;0.80;;;;;;;13.45;100.00;99858.19;5029588;28;20065;-79
2021/03/28 14:39:11;;;;;;;1.45;0.70;;;;;;;13.47;100.00;99864.06;5032607;28;20413;-79
2021/03/28 14:42:18;;;;;;;8.20;1.37;;;;;;;13.43;100.00;99865.53;5029567;28;20080;-79
2021/03/28 14:45:28;;;;;;;4.75;0.60;;;;;;;13.40;100.00;99864.53;5033819;28;20784;-80
2021/03/28 14:48:37;;;;;;;7.15;0.82;;;;;;;13.38;100.00;99857.88;5034197;28;20080;-81
2021/03/28 14:52:22;;;;;;;0.98;0.30;;;;;;;13.14;100.00;99866.56;5012348;28;20065;-81
2021/03/28 14:55:35;;;;;;;1.55;0.40;;;;;;;13.11;100.00;99856.34;5011112;28;20085;-81
2021/03/28 14:58:50;;;;;;;1.98;0.20;;;;;;;13.09;100.00;99853.28;5011803;28;20056;-80
2021/03/28 15:02:37;;;;;;;0.10;0.10;;;;;;;13.08;100.00;99856.59;5011646;28;20058;-80
2021/03/28 15:05:50;;;;;;;0.57;0.17;;;;;;;13.07;100.00;99860.63;5012413;28;20073;-80
2021/03/28 15:09:13;;;;;;;0.10;0.08;;;;;;;12.99;100.00;99870.69;5007504;28;20064;-81
2021/03/28 15:12:24;;;;;;;0.82;0.10;;;;;;;12.94;100.00;99866.56;5013660;28;20116;-81
2021/03/28 15:15:47;;;;;;;;;;;;;;;12.88;100.00;99871.31;5011285;28;20080;-79
2021/03/28 15:19:13;;;;;;;0.20;0.10;;;;;;;12.84;100.00;99870.78;4992170;28;19921;-81
2021/03/28 15:22:16;;;;;;;0.30;0.10;;;;;;;12.82;100.00;99850.94;5014986;28;20386;-80
2021/03/28 15:25:23;;;;;;;0.38;0.20;;;;;;;12.82;100.00;99854.47;5016799;28;20064;-81
2021/03/28 15:28:30;;;;;;;0.28;0.20;;;;;;;12.85;100.00;99844.34;5011099;28;20061;-81
2021/03/28 15:31:52;;;;;;;0.82;0.32;;;;;;;12.76;100.00;99852.88;5010231;28;20082;-80
2021/03/28 15:35:11;;;;;;;;;;;;;;;12.66;100.00;99865.47;5004474;28;20122;-81
2021/03/28 15:38:34;;;;;;;7.13;1.77;;;;;;;12.56;100.00;99872.47;5005641;28;19925;-83
2021/03/28 15:41:54;;;;;;;0.13;0.10;;;;;;;12.52;100.00;99860.69;4989971;28;20143;-81